createdAt,value
2018-08-22T08:25:18.680Z,99.90
2018-08-22T08:27:46.704Z,99.90
2018-08-22T08:30:14.748Z,99.90
2018-08-22T08:32:42.867Z,99.90
2018-08-22T08:35:10.891Z,99.90
2018-08-22T08:37:38.906Z,99.90
2018-08-22T08:40:06.913Z,99.90
2018-08-22T08:42:34.932Z,99.90
2018-08-22T08:45:03.043Z,99.90
2018-08-22T08:47:31.063Z,99.90
2018-08-22T08:49:59.073Z,99.90
2018-08-22T08:52:27.098Z,99.90
2018-08-22T08:54:55.116Z,99.90
2018-08-22T08:57:23.168Z,99.90
2018-08-22T08:59:51.146Z,99.90
2018-08-22T09:02:19.162Z,99.90
2018-08-22T09:04:47.183Z,99.90
2018-08-22T09:07:15.219Z,99.90
2018-08-22T09:09:43.235Z,99.90
2018-08-22T09:12:11.273Z,99.90
2018-08-22T09:14:39.270Z,99.90
2018-08-22T09:17:13.839Z,99.90
2018-08-22T09:19:41.812Z,99.90
2018-08-22T09:22:09.899Z,99.90
2018-08-22T09:24:37.914Z,99.90
2018-08-22T09:27:05.957Z,99.90
2018-08-22T09:29:34.043Z,99.90
2018-08-22T09:32:02.011Z,99.90
2018-08-22T09:34:30.049Z,99.90
2018-08-22T09:36:58.081Z,99.90
2018-08-22T09:39:26.207Z,99.90
2018-08-22T09:41:54.134Z,99.90
2018-08-22T09:44:22.157Z,99.90
2018-08-22T09:46:50.201Z,99.90
2018-08-22T09:49:18.191Z,99.90
2018-08-22T09:51:46.196Z,99.90
2018-08-22T09:54:14.210Z,99.90
2018-08-22T09:56:42.224Z,99.90
2018-08-22T09:59:10.235Z,99.90
2018-08-22T10:01:44.175Z,99.90
2018-08-22T10:04:12.196Z,99.90
2018-08-22T10:06:41.560Z,99.90
2018-08-22T10:09:10.586Z,99.90
2018-08-22T10:11:38.617Z,99.90
2018-08-22T10:14:06.634Z,99.90
2018-08-22T10:16:34.635Z,99.90
2018-08-22T10:19:02.699Z,99.90
2018-08-22T10:21:30.678Z,99.90
2018-08-22T10:23:58.689Z,99.90
2018-08-22T10:26:26.709Z,99.90
2018-08-22T10:28:54.841Z,99.90
2018-08-22T10:31:23.590Z,99.90
2018-08-22T10:33:51.628Z,99.90
2018-08-22T10:36:19.704Z,99.90
2018-08-22T10:38:47.719Z,99.90
2018-08-22T10:41:15.723Z,99.90
2018-08-22T10:43:43.730Z,99.90
2018-08-22T10:46:11.741Z,99.90
2018-08-22T10:48:39.750Z,99.90
2018-08-22T10:51:08.360Z,99.90
2018-08-22T10:53:36.469Z,99.90
2018-08-22T10:56:04.481Z,99.90
2018-08-22T10:58:32.571Z,99.90
2018-08-22T11:01:01.055Z,99.90
2018-08-22T11:03:29.450Z,99.90
2018-08-22T11:05:57.459Z,99.90
2018-08-22T11:08:25.482Z,99.90
2018-08-22T11:10:53.499Z,99.90
2018-08-22T11:13:21.527Z,99.90
2018-08-22T11:15:49.670Z,99.90
2018-08-22T11:18:17.612Z,99.90
2018-08-22T11:20:46.851Z,99.90
2018-08-22T11:23:27.876Z,99.90
2018-08-22T11:26:07.521Z,99.90
2018-08-22T11:28:47.272Z,99.90
2018-08-22T11:31:27.466Z,99.90
2018-08-22T11:34:07.114Z,99.90
2018-08-22T11:36:34.830Z,99.90
2018-08-22T11:39:04.394Z,99.90
2018-08-22T11:41:32.398Z,99.90
2018-08-22T11:44:00.415Z,99.90
2018-08-22T11:46:28.422Z,99.90
2018-08-22T11:48:56.448Z,99.90
2018-08-22T11:51:24.470Z,99.90
2018-08-22T11:53:52.480Z,99.90
2018-08-22T11:56:20.491Z,99.90
2018-08-22T11:58:48.503Z,99.90
2018-08-22T12:01:16.521Z,99.90
2018-08-22T12:03:44.575Z,99.90
2018-08-22T12:06:12.595Z,99.90
2018-08-22T12:08:40.601Z,99.90
2018-08-22T12:11:08.622Z,99.90
2018-08-22T12:13:36.634Z,99.90
2018-08-22T12:16:04.756Z,99.90
2018-08-22T12:18:32.746Z,99.90
2018-08-22T12:21:00.760Z,99.90
2018-08-22T12:23:28.790Z,99.90
2018-08-22T12:25:56.796Z,99.90
2018-08-22T12:28:24.820Z,99.90
2018-08-22T12:30:52.897Z,99.90
2018-08-22T12:33:20.893Z,99.90
2018-08-22T12:35:48.914Z,99.90
2018-08-22T12:38:16.935Z,99.90
2018-08-22T12:40:44.946Z,99.90
2018-08-22T12:43:12.955Z,99.90
2018-08-22T12:45:40.970Z,99.90
2018-08-22T12:48:08.981Z,99.90
2018-08-22T12:50:37.003Z,99.90
2018-08-22T12:53:05.414Z,99.90
2018-08-22T12:55:33.455Z,99.90
2018-08-22T12:58:01.458Z,99.90
2018-08-22T13:00:29.474Z,99.90
2018-08-22T13:02:57.491Z,99.90
2018-08-22T13:05:25.512Z,99.90
2018-08-22T13:07:53.515Z,99.90
2018-08-22T13:10:21.535Z,99.90
2018-08-22T13:12:49.540Z,99.90
2018-08-22T13:15:17.574Z,99.90
2018-08-22T13:17:45.588Z,99.90
2018-08-22T13:20:13.620Z,99.90
2018-08-22T13:22:41.631Z,99.90
2018-08-22T13:25:09.644Z,99.90
2018-08-22T13:27:37.666Z,99.90
2018-08-22T13:30:06.086Z,99.90
2018-08-22T13:32:34.092Z,99.90
2018-08-22T13:35:02.095Z,99.90
2018-08-22T13:37:30.108Z,99.90
2018-08-22T13:39:58.119Z,99.90
2018-08-22T13:42:26.744Z,99.90
2018-08-22T13:44:54.747Z,99.90
2018-08-22T13:47:22.758Z,99.90
2018-08-22T13:49:50.760Z,99.90
2018-08-22T13:52:18.771Z,99.90
2018-08-22T13:54:46.770Z,99.90
2018-08-22T13:57:14.784Z,99.90
2018-08-22T13:59:42.791Z,99.90
2018-08-22T14:02:10.804Z,99.90
2018-08-22T14:04:38.802Z,99.90
2018-08-22T14:07:06.824Z,99.90
2018-08-22T14:09:34.859Z,99.90
2018-08-22T14:12:02.862Z,99.90
2018-08-22T14:14:30.882Z,99.90
2018-08-22T14:16:58.892Z,99.90
2018-08-22T14:19:26.898Z,99.90
2018-08-22T14:21:54.912Z,99.90
2018-08-22T14:24:22.915Z,99.90
2018-08-22T14:26:50.932Z,99.90
2018-08-22T14:29:18.926Z,99.90
2018-08-22T14:31:46.934Z,99.90
2018-08-22T14:34:14.947Z,99.90
2018-08-22T14:36:42.958Z,99.90
2018-08-22T14:39:12.180Z,99.90
2018-08-22T14:41:40.254Z,99.90
2018-08-22T14:44:08.343Z,99.90
2018-08-22T14:46:36.346Z,99.90
2018-08-22T14:49:10.678Z,99.90
2018-08-22T14:51:38.699Z,99.90
2018-08-22T14:54:06.747Z,99.90
2018-08-22T14:56:34.809Z,99.90
2018-08-22T14:59:02.775Z,99.90
2018-08-22T15:01:30.777Z,99.90
2018-08-22T15:03:58.795Z,99.90
2018-08-22T15:06:26.799Z,99.90
2018-08-22T15:09:01.927Z,99.90
2018-08-22T15:11:29.972Z,99.90
2018-08-22T15:13:57.976Z,99.90
2018-08-22T15:16:26.048Z,99.90
2018-08-22T15:18:54.358Z,99.90
2018-08-22T15:21:22.386Z,99.90
2018-08-22T15:23:50.583Z,99.90
2018-08-22T15:26:18.586Z,99.90
2018-08-22T15:28:46.591Z,99.90
2018-08-22T15:31:14.604Z,99.90
2018-08-22T15:33:43.172Z,99.90
2018-08-22T15:36:11.187Z,99.90
2018-08-22T15:38:39.203Z,99.90
2018-08-22T15:41:07.294Z,99.90
2018-08-22T15:43:35.459Z,99.90
2018-08-22T15:46:03.458Z,99.90
2018-08-22T15:48:31.563Z,99.90
2018-08-22T15:50:59.945Z,99.90
2018-08-22T15:53:27.967Z,99.90
2018-08-22T15:55:55.975Z,99.90
2018-08-22T15:58:23.988Z,99.90
2018-08-22T16:00:53.147Z,99.90
2018-08-22T16:03:21.811Z,99.90
2018-08-22T16:05:50.561Z,99.90
2018-08-22T16:08:20.115Z,99.90
2018-08-22T16:10:48.111Z,99.90
2018-08-22T16:13:21.639Z,99.90
2018-08-22T16:15:50.849Z,99.90
2018-08-22T16:18:18.901Z,99.90
2018-08-22T16:20:54.383Z,99.90
2018-08-22T16:23:24.744Z,99.90
2018-08-22T16:25:53.480Z,99.90
2018-08-22T16:28:21.963Z,99.90
2018-08-22T16:30:57.042Z,99.90
2018-08-22T16:33:20.779Z,99.90
2018-08-22T16:35:48.800Z,99.90
2018-08-22T16:38:16.816Z,99.90
2018-08-22T16:40:51.020Z,99.90
2018-08-22T16:43:35.939Z,99.90
2018-08-22T16:46:06.039Z,99.90
2018-08-22T16:48:34.046Z,99.90
2018-08-22T16:51:02.059Z,99.90
2018-08-22T16:53:30.087Z,99.90
2018-08-22T16:55:58.156Z,99.90
2018-08-22T16:58:26.279Z,99.90
2018-08-22T17:00:55.293Z,99.90
2018-08-22T17:03:23.307Z,99.90
2018-08-22T17:05:55.067Z,99.90
2018-08-22T17:08:23.083Z,99.90
2018-08-22T17:10:55.467Z,99.90
2018-08-22T17:13:29.412Z,99.90
2018-08-22T17:15:58.618Z,99.90
2018-08-22T17:18:26.918Z,99.90
2018-08-22T17:20:54.928Z,99.90
2018-08-22T17:23:23.030Z,99.90
2018-08-22T17:25:50.947Z,99.90
2018-08-22T17:28:23.682Z,99.90
2018-08-22T17:30:51.754Z,99.90
2018-08-22T17:33:19.770Z,99.90
2018-08-22T17:35:47.787Z,99.90
2018-08-22T17:38:15.802Z,99.90
2018-08-22T17:40:43.814Z,99.90
2018-08-22T17:43:11.816Z,99.90
2018-08-22T17:45:40.655Z,99.90
2018-08-22T17:48:08.659Z,99.90
2018-08-22T17:50:36.676Z,99.90
2018-08-22T17:53:06.005Z,99.90
2018-08-22T17:55:34.028Z,99.90
2018-08-22T17:58:02.029Z,99.90
2018-08-22T18:00:32.856Z,99.90
2018-08-22T18:03:00.867Z,99.90
2018-08-22T18:05:31.871Z,99.90
2018-08-22T18:08:01.759Z,99.90
2018-08-22T18:10:33.932Z,99.90
2018-08-22T18:13:07.326Z,99.90
2018-08-22T18:15:35.348Z,99.90
2018-08-22T18:18:03.418Z,99.90
2018-08-22T18:20:32.340Z,99.90
2018-08-22T18:23:00.348Z,99.90
2018-08-22T18:25:28.363Z,99.90
2018-08-22T18:28:00.720Z,99.90
2018-08-22T18:30:28.723Z,99.90
2018-08-22T18:32:56.735Z,99.90
2018-08-22T18:35:24.775Z,99.90
2018-08-22T18:37:52.783Z,99.90
2018-08-22T18:40:23.212Z,99.90
2018-08-22T18:42:53.595Z,99.90
2018-08-22T18:45:22.147Z,99.90
2018-08-22T18:47:50.344Z,99.90
2018-08-22T18:50:18.643Z,99.90
2018-08-22T18:52:50.847Z,99.90
2018-08-22T18:55:20.914Z,99.90
2018-08-22T18:57:48.966Z,99.90
2018-08-22T19:00:16.989Z,1.00
2018-08-22T19:02:45.006Z,1.00
2018-08-22T19:05:19.763Z,1.00
2018-08-22T19:08:08.626Z,1.00
2018-08-22T19:10:37.738Z,1.00
2018-08-22T19:13:11.129Z,1.00
2018-08-22T19:15:39.154Z,1.00
2018-08-22T19:18:08.583Z,11.90
2018-08-22T19:20:36.647Z,73.30
2018-08-22T19:23:04.754Z,99.90
2018-08-22T19:25:33.062Z,99.90
2018-08-22T19:28:01.497Z,99.90
2018-08-22T19:30:29.633Z,1.00
2018-08-22T19:32:57.631Z,1.00
2018-08-22T19:35:25.695Z,1.00
2018-08-22T19:37:59.103Z,1.00
2018-08-22T19:40:27.120Z,38.40
2018-08-22T19:42:55.127Z,99.90
2018-08-22T19:45:23.135Z,99.90
2018-08-22T19:47:51.134Z,1.00
2018-08-22T19:50:19.165Z,1.00
2018-08-22T19:52:47.207Z,1.00
2018-08-22T19:55:15.214Z,27.10
2018-08-22T19:57:44.678Z,99.90
2018-08-22T20:00:13.709Z,99.90
2018-08-22T20:02:41.664Z,99.90
2018-08-22T20:05:11.876Z,1.00
2018-08-22T20:07:40.297Z,1.00
2018-08-22T20:10:09.063Z,71.30
2018-08-22T20:12:48.763Z,98.10
2018-08-22T20:15:16.826Z,99.90
2018-08-22T20:17:46.478Z,1.00
2018-08-22T20:20:14.662Z,1.00
2018-08-22T20:22:43.974Z,99.90
2018-08-22T20:25:12.321Z,99.90
2018-08-22T20:27:40.423Z,99.90
2018-08-22T20:30:12.630Z,99.90
2018-08-22T20:32:47.206Z,99.90
2018-08-22T20:35:19.476Z,99.90
2018-08-22T20:37:47.477Z,99.90
2018-08-22T20:40:15.491Z,1.00
2018-08-22T20:42:43.567Z,99.90
2018-08-22T20:45:14.143Z,99.90
2018-08-22T20:47:42.195Z,99.90
2018-08-22T20:50:10.243Z,99.90
2018-08-22T20:52:38.401Z,99.90
2018-08-22T20:55:08.688Z,1.00
2018-08-22T20:57:36.699Z,1.00
2018-08-22T21:00:05.521Z,1.00
2018-08-22T21:02:33.582Z,99.90
2018-08-22T21:05:01.544Z,1.00
2018-08-22T21:07:34.883Z,1.00
2018-08-22T21:10:02.887Z,1.00
2018-08-22T21:12:30.898Z,1.00
2018-08-22T21:14:59.016Z,1.00
2018-08-22T21:17:27.036Z,99.90
2018-08-22T21:19:55.048Z,99.90
2018-08-22T21:22:26.805Z,99.90
2018-08-22T21:24:56.451Z,99.90
2018-08-22T21:27:24.443Z,1.00
2018-08-22T21:29:52.571Z,1.00
2018-08-22T21:32:20.757Z,99.90
2018-08-22T21:34:48.995Z,1.00
2018-08-22T21:37:24.894Z,9.20
2018-08-22T21:39:52.899Z,99.90
2018-08-22T21:42:25.224Z,99.90
2018-08-22T21:44:53.230Z,99.90
2018-08-22T21:47:21.262Z,99.90
2018-08-22T21:49:49.321Z,99.90
2018-08-22T21:52:17.364Z,99.90
2018-08-22T21:54:45.418Z,1.00
2018-08-22T21:57:13.373Z,1.00
2018-08-22T21:59:41.388Z,99.90
2018-08-22T22:02:10.419Z,99.90
2018-08-22T22:04:39.539Z,99.90
2018-08-22T22:07:08.603Z,34.90
2018-08-22T22:09:37.311Z,99.90
2018-08-22T22:12:09.581Z,1.00
2018-08-22T22:14:37.607Z,1.00
2018-08-22T22:17:06.115Z,85.20
2018-08-22T22:19:35.349Z,99.90
2018-08-22T22:22:03.835Z,99.90
2018-08-22T22:24:44.041Z,99.90
2018-08-22T22:27:12.081Z,1.00
2018-08-22T22:29:40.261Z,1.00
2018-08-22T22:32:08.502Z,99.90
2018-08-22T22:34:37.330Z,99.90
2018-08-22T22:37:05.601Z,99.90
2018-08-22T22:39:43.773Z,99.90
2018-08-22T22:42:17.251Z,1.00
2018-08-22T22:44:48.561Z,1.00
2018-08-22T22:47:22.063Z,1.00
2018-08-22T22:49:50.708Z,99.90
2018-08-22T22:52:26.375Z,1.00
2018-08-22T22:54:55.589Z,1.00
2018-08-22T22:57:23.823Z,99.90
2018-08-22T22:59:52.217Z,99.90
2018-08-22T23:02:23.088Z,1.00
2018-08-22T23:04:52.093Z,1.00
2018-08-22T23:07:23.878Z,99.90
2018-08-22T23:09:52.930Z,99.90
2018-08-22T23:12:26.409Z,1.00
2018-08-22T23:14:55.340Z,1.00
2018-08-22T23:17:23.370Z,99.90
2018-08-22T23:20:03.940Z,99.90
2018-08-22T23:22:31.991Z,77.40
2018-08-22T23:25:00.124Z,99.90
2018-08-22T23:27:28.138Z,12.50
2018-08-22T23:29:56.171Z,1.00
2018-08-22T23:32:24.170Z,1.00
2018-08-22T23:34:52.178Z,1.00
2018-08-22T23:37:20.173Z,1.00
2018-08-22T23:39:48.182Z,1.00
2018-08-22T23:42:16.177Z,1.00
2018-08-22T23:44:45.007Z,1.00
2018-08-22T23:47:13.008Z,1.00
2018-08-22T23:49:44.786Z,25.80
2018-08-22T23:52:12.830Z,99.90
2018-08-22T23:54:45.218Z,99.90
2018-08-22T23:57:19.211Z,99.90
2018-08-22T23:59:47.262Z,99.90
